createdAt,value
2023-01-30T00:01:16.928Z,49.42
2023-01-30T00:03:45.570Z,51.03
2023-01-30T00:06:15.585Z,50.13
2023-01-30T00:08:43.824Z,53.10
2023-01-30T00:11:14.441Z,55.78
2023-01-30T00:13:43.242Z,51.72
2023-01-30T00:16:11.930Z,54.15
2023-01-30T00:18:41.786Z,53.13
2023-01-30T00:21:11.865Z,56.80
2023-01-30T00:23:41.387Z,52.88
2023-01-30T00:26:10.642Z,57.25
2023-01-30T00:28:40.813Z,53.25
2023-01-30T00:31:09.882Z,58.70
2023-01-30T00:33:39.545Z,57.75
2023-01-30T00:36:08.673Z,54.28
2023-01-30T00:38:37.045Z,58.53
2023-01-30T00:41:11.003Z,58.65
2023-01-30T00:43:56.439Z,59.58
2023-01-30T00:46:47.487Z,62.60
2023-01-30T00:49:15.583Z,57.40
2023-01-30T00:51:43.930Z,65.05
2023-01-30T00:54:12.039Z,60.00
2023-01-30T00:56:41.603Z,55.53
2023-01-30T00:59:09.695Z,63.88
2023-01-30T01:01:38.911Z,58.88
2023-01-30T01:04:08.787Z,58.45
2023-01-30T01:06:37.120Z,59.10
2023-01-30T01:09:05.860Z,58.42
2023-01-30T01:11:35.306Z,61.05
2023-01-30T01:14:06.587Z,58.65
2023-01-30T01:16:36.060Z,60.53
2023-01-30T01:19:04.676Z,58.15
2023-01-30T01:21:32.852Z,53.80
2023-01-30T01:24:01.794Z,57.22
2023-01-30T01:26:29.917Z,64.00
2023-01-30T01:28:58.868Z,60.65
2023-01-30T01:31:28.593Z,55.55
2023-01-30T01:33:57.552Z,57.67
2023-01-30T01:36:53.113Z,54.38
2023-01-30T01:39:17.649Z,49.88
2023-01-30T01:41:44.752Z,53.40
2023-01-30T01:44:17.062Z,53.35
2023-01-30T01:46:51.151Z,53.08
2023-01-30T01:51:55.563Z,51.83
2023-01-30T01:54:30.614Z,52.75
2023-01-30T01:57:02.765Z,49.15
2023-01-30T01:59:34.935Z,45.92
2023-01-30T02:02:10.211Z,50.33
2023-01-30T02:05:04.507Z,53.35
2023-01-30T02:07:38.079Z,62.60
2023-01-30T02:10:08.018Z,50.70
2023-01-30T02:12:36.360Z,56.50
2023-01-30T02:15:06.023Z,57.65
2023-01-30T02:17:35.525Z,55.25
2023-01-30T02:20:10.114Z,58.17
2023-01-30T02:22:59.668Z,60.45
2023-01-30T02:25:49.538Z,57.10
2023-01-30T02:29:03.471Z,56.80
2023-01-30T02:31:41.689Z,51.90
2023-01-30T02:34:26.525Z,52.85
2023-01-30T02:37:05.588Z,57.17
2023-01-30T02:39:45.912Z,50.95
2023-01-30T02:42:24.812Z,53.30
2023-01-30T02:45:00.924Z,52.72
2023-01-30T02:47:35.803Z,51.85
2023-01-30T02:50:08.865Z,53.90
2023-01-30T02:52:38.512Z,53.35
2023-01-30T02:55:11.676Z,53.53
2023-01-30T02:57:39.966Z,50.75
2023-01-30T03:00:09.785Z,50.20
2023-01-30T03:03:10.844Z,45.35
2023-01-30T03:06:09.571Z,51.63
2023-01-30T03:08:46.903Z,48.33
2023-01-30T03:11:15.611Z,44.65
2023-01-30T03:13:52.950Z,44.17
2023-01-30T03:16:26.681Z,42.00
2023-01-30T03:18:57.329Z,43.80
2023-01-30T03:21:25.419Z,39.28
2023-01-30T03:23:54.314Z,43.45
2023-01-30T03:26:27.170Z,39.92
2023-01-30T03:28:55.791Z,38.58
2023-01-30T03:31:24.332Z,38.70
2023-01-30T03:33:52.763Z,35.58
2023-01-30T03:36:22.620Z,37.00
2023-01-30T03:38:52.769Z,33.80
2023-01-30T03:41:22.033Z,37.92
2023-01-30T03:43:50.227Z,36.78
2023-01-30T03:46:18.777Z,36.70
2023-01-30T03:48:46.938Z,38.25
2023-01-30T03:51:15.647Z,31.88
2023-01-30T03:53:45.204Z,35.13
2023-01-30T03:56:14.243Z,32.58
2023-01-30T03:58:42.383Z,33.47
2023-01-30T04:01:21.204Z,30.90
2023-01-30T04:03:49.669Z,34.22
2023-01-30T04:06:18.339Z,31.02
2023-01-30T04:08:47.960Z,32.58
2023-01-30T04:11:28.918Z,29.90
2023-01-30T04:13:57.094Z,28.55
2023-01-30T04:16:27.276Z,25.63
2023-01-30T04:19:13.637Z,28.50
2023-01-30T04:21:42.651Z,30.20
2023-01-30T04:24:12.349Z,26.27
2023-01-30T04:26:40.998Z,25.25
2023-01-30T04:29:09.713Z,23.15
2023-01-30T04:31:39.365Z,17.58
2023-01-30T04:34:17.203Z,16.08
2023-01-30T04:36:45.472Z,17.35
2023-01-30T04:39:15.277Z,15.63
2023-01-30T04:41:43.645Z,12.85
2023-01-30T04:44:12.074Z,14.82
2023-01-30T04:47:01.220Z,11.20
2023-01-30T04:49:29.698Z,11.68
2023-01-30T04:52:00.637Z,8.55
2023-01-30T04:54:30.364Z,9.32
2023-01-30T04:56:58.481Z,11.93
2023-01-30T04:59:27.040Z,12.90
2023-01-30T05:01:56.198Z,11.68
2023-01-30T05:04:24.601Z,10.57
2023-01-30T05:06:52.926Z,10.95
2023-01-30T05:09:21.272Z,10.27
2023-01-30T05:11:50.706Z,11.98
2023-01-30T05:14:19.244Z,11.60
2023-01-30T05:16:47.264Z,16.23
2023-01-30T05:19:15.484Z,16.00
2023-01-30T05:21:43.608Z,13.75
2023-01-30T05:24:12.024Z,15.40
2023-01-30T05:26:40.201Z,21.83
2023-01-30T05:29:11.614Z,24.95
2023-01-30T05:31:39.806Z,25.92
2023-01-30T05:34:08.235Z,26.00
2023-01-30T05:36:36.362Z,28.20
2023-01-30T05:39:04.802Z,36.30
2023-01-30T05:41:32.964Z,27.60
2023-01-30T05:44:01.256Z,26.98
2023-01-30T05:46:31.002Z,31.27
2023-01-30T05:48:59.253Z,37.47
2023-01-30T05:51:28.361Z,42.33
2023-01-30T05:53:56.668Z,37.35
2023-01-30T05:56:24.878Z,45.85
2023-01-30T05:58:53.694Z,46.25
2023-01-30T06:01:23.056Z,50.70
2023-01-30T06:03:53.263Z,58.03
2023-01-30T06:06:22.392Z,48.58
2023-01-30T06:08:54.505Z,52.30
2023-01-30T06:11:23.043Z,40.38
2023-01-30T06:13:51.531Z,48.63
2023-01-30T06:16:20.450Z,42.13
2023-01-30T06:18:48.650Z,47.50
2023-01-30T06:21:18.720Z,48.38
2023-01-30T06:23:47.365Z,52.17
2023-01-30T06:26:15.616Z,53.97
2023-01-30T06:28:44.215Z,55.17
2023-01-30T06:31:12.526Z,41.92
2023-01-30T06:33:40.634Z,54.22
2023-01-30T06:36:09.617Z,46.70
2023-01-30T06:38:39.258Z,57.88
2023-01-30T06:41:07.771Z,58.22
2023-01-30T06:43:35.855Z,56.53
2023-01-30T06:46:04.349Z,52.70
2023-01-30T06:48:32.627Z,56.78
2023-01-30T06:51:01.097Z,52.83
2023-01-30T06:53:31.107Z,71.53
2023-01-30T06:56:02.428Z,72.32
2023-01-30T06:58:30.930Z,60.20
2023-01-30T07:00:59.331Z,58.72
2023-01-30T07:03:27.439Z,59.78
2023-01-30T07:05:56.019Z,45.83
2023-01-30T07:08:24.468Z,48.22
2023-01-30T07:10:52.868Z,55.05
2023-01-30T07:13:22.343Z,68.90
2023-01-30T07:15:50.717Z,53.63
2023-01-30T07:18:19.205Z,57.97
2023-01-30T07:20:48.888Z,48.22
2023-01-30T07:23:18.096Z,53.17
2023-01-30T07:25:46.301Z,51.22
2023-01-30T07:28:14.725Z,48.63
2023-01-30T07:30:44.395Z,44.75
2023-01-30T07:33:13.086Z,44.40
2023-01-30T07:35:41.269Z,43.28
2023-01-30T07:38:09.391Z,49.78
2023-01-30T07:40:37.506Z,45.28
2023-01-30T07:43:07.011Z,40.60
2023-01-30T07:45:39.059Z,46.10
2023-01-30T07:48:09.027Z,42.45
2023-01-30T07:50:40.290Z,40.70
2023-01-30T07:53:10.560Z,39.45
2023-01-30T07:55:39.023Z,45.67
2023-01-30T07:58:07.361Z,39.50
2023-01-30T08:00:36.004Z,41.22
2023-01-30T08:03:04.212Z,39.65
2023-01-30T08:05:33.745Z,37.28
2023-01-30T08:08:02.165Z,35.30
2023-01-30T08:10:30.251Z,34.17
2023-01-30T08:12:58.685Z,35.15
2023-01-30T08:15:26.860Z,31.95
2023-01-30T08:17:56.461Z,30.65
2023-01-30T08:20:25.026Z,36.50
2023-01-30T08:22:55.250Z,33.80
2023-01-30T08:25:24.416Z,33.05
2023-01-30T08:27:53.751Z,35.50
2023-01-30T08:30:23.096Z,33.83
2023-01-30T08:32:51.407Z,41.33
2023-01-30T08:35:19.575Z,28.38
2023-01-30T08:37:47.969Z,37.17
2023-01-30T08:40:17.997Z,40.53
2023-01-30T08:42:46.583Z,25.48
2023-01-30T08:45:14.998Z,31.88
2023-01-30T08:47:43.414Z,32.67
2023-01-30T08:50:12.428Z,27.65
2023-01-30T08:52:40.793Z,29.95
2023-01-30T08:55:10.540Z,41.53
2023-01-30T08:57:40.067Z,31.50
2023-01-30T09:00:10.096Z,30.48
2023-01-30T09:02:38.558Z,25.20
2023-01-30T09:05:08.234Z,26.92
2023-01-30T09:07:36.418Z,33.38
2023-01-30T09:10:05.202Z,29.48
2023-01-30T09:12:33.264Z,31.73
2023-01-30T09:15:03.026Z,31.63
2023-01-30T09:17:31.193Z,29.02
2023-01-30T09:19:59.535Z,32.03
2023-01-30T09:22:27.897Z,38.70
2023-01-30T09:24:55.988Z,29.92
2023-01-30T09:27:24.546Z,24.67
2023-01-30T09:29:52.845Z,27.63
2023-01-30T09:32:25.629Z,28.65
2023-01-30T09:34:54.038Z,30.40
2023-01-30T09:37:22.886Z,26.10
2023-01-30T09:39:50.953Z,28.02
2023-01-30T09:42:42.814Z,28.20
2023-01-30T09:45:43.033Z,19.42
2023-01-30T09:48:19.968Z,22.88
2023-01-30T09:51:15.211Z,26.33
2023-01-30T09:54:04.087Z,18.67
2023-01-30T09:56:32.418Z,17.60
2023-01-30T09:59:03.429Z,15.68
2023-01-30T10:01:43.842Z,16.05
2023-01-30T10:04:20.070Z,14.65
2023-01-30T10:07:00.321Z,15.18
2023-01-30T10:09:39.571Z,15.30
2023-01-30T10:12:24.423Z,17.38
2023-01-30T10:15:20.115Z,12.50
2023-01-30T10:18:12.921Z,19.95
2023-01-30T10:20:51.069Z,18.20
2023-01-30T10:23:36.982Z,11.55
2023-01-30T10:26:10.764Z,16.15
2023-01-30T10:28:45.739Z,10.88
2023-01-30T10:31:16.954Z,18.83
2023-01-30T10:33:55.525Z,18.20
2023-01-30T10:36:30.182Z,17.02
2023-01-30T10:39:04.382Z,24.73
2023-01-30T10:41:37.656Z,17.25
2023-01-30T10:44:11.545Z,22.07
2023-01-30T10:46:57.216Z,20.58
2023-01-30T10:49:37.852Z,23.05
2023-01-30T10:52:20.052Z,23.60
2023-01-30T10:54:56.450Z,22.42
2023-01-30T10:57:33.647Z,24.50
2023-01-30T11:00:05.644Z,25.23
2023-01-30T11:02:40.173Z,15.63
2023-01-30T11:05:17.019Z,18.13
2023-01-30T11:07:49.023Z,34.70
2023-01-30T11:10:19.811Z,28.75
2023-01-30T11:12:48.144Z,22.58
2023-01-30T11:15:16.859Z,22.17
2023-01-30T11:17:46.249Z,24.90
2023-01-30T11:20:17.838Z,20.92
2023-01-30T11:22:54.991Z,26.77
2023-01-30T11:25:24.672Z,23.42
2023-01-30T11:28:00.843Z,26.17
2023-01-30T11:30:31.326Z,20.08
2023-01-30T11:33:13.256Z,27.45
2023-01-30T11:35:46.827Z,23.38
2023-01-30T11:38:23.395Z,22.35
2023-01-30T11:41:02.204Z,24.35
2023-01-30T11:43:30.642Z,26.83
2023-01-30T11:45:59.659Z,22.00
2023-01-30T11:49:02.336Z,20.65
2023-01-30T11:51:18.502Z,21.70
2023-01-30T11:53:50.635Z,21.88
2023-01-30T11:56:23.637Z,20.08
2023-01-30T11:58:58.820Z,28.13
2023-01-30T12:01:29.507Z,23.55
2023-01-30T12:03:59.504Z,20.27
2023-01-30T12:06:32.046Z,13.65
2023-01-30T12:09:01.861Z,23.63
2023-01-30T12:11:42.189Z,20.65
2023-01-30T12:14:33.653Z,16.08
2023-01-30T12:17:11.785Z,17.38
2023-01-30T12:19:48.324Z,22.50
2023-01-30T12:22:29.343Z,22.85
2023-01-30T12:25:01.892Z,18.83
2023-01-30T12:27:47.292Z,23.55
2023-01-30T12:30:23.685Z,25.25
2023-01-30T12:32:53.171Z,23.65
2023-01-30T12:35:30.782Z,24.52
2023-01-30T12:38:08.528Z,24.83
2023-01-30T12:40:51.732Z,24.33
2023-01-30T12:43:52.835Z,22.73
2023-01-30T12:46:40.065Z,18.23
2023-01-30T12:49:34.520Z,20.23
2023-01-30T12:52:21.771Z,18.48
2023-01-30T12:54:59.433Z,21.23
2023-01-30T12:57:37.167Z,25.02
2023-01-30T13:00:21.509Z,20.35
2023-01-30T13:03:06.340Z,14.85
2023-01-30T13:05:42.728Z,14.48
2023-01-30T13:08:21.869Z,16.38
2023-01-30T13:10:59.896Z,15.27
2023-01-30T13:13:43.051Z,16.67
2023-01-30T13:16:19.463Z,15.63
2023-01-30T13:18:54.397Z,14.68
2023-01-30T13:21:30.530Z,16.38
2023-01-30T13:24:13.436Z,13.85
2023-01-30T13:26:44.100Z,13.27
2023-01-30T13:29:19.450Z,15.40
2023-01-30T13:31:53.066Z,14.25
2023-01-30T13:34:27.703Z,11.45
2023-01-30T13:37:00.510Z,16.00
2023-01-30T13:39:42.560Z,16.20
2023-01-30T13:42:26.557Z,18.00
2023-01-30T13:44:57.307Z,19.13
2023-01-30T13:47:46.738Z,20.77
2023-01-30T13:50:33.626Z,16.42
2023-01-30T13:53:08.413Z,16.55
2023-01-30T13:55:44.792Z,14.82
2023-01-30T13:58:25.668Z,15.82
2023-01-30T14:00:56.235Z,17.30
2023-01-30T14:03:29.092Z,21.17
2023-01-30T14:06:32.123Z,24.27
2023-01-30T14:09:04.068Z,21.65
2023-01-30T14:11:36.103Z,24.13
2023-01-30T14:14:08.050Z,17.52
2023-01-30T14:16:48.704Z,23.45
2023-01-30T14:19:37.091Z,24.50
2023-01-30T14:22:19.392Z,28.52
2023-01-30T14:25:38.278Z,25.35
2023-01-30T14:28:45.324Z,21.92
2023-01-30T14:31:33.815Z,21.10
2023-01-30T14:34:03.670Z,29.55
2023-01-30T14:36:37.193Z,23.38
2023-01-30T14:39:40.492Z,29.08
2023-01-30T14:42:24.566Z,29.70
2023-01-30T14:45:04.878Z,27.10
2023-01-30T14:47:42.584Z,23.15
2023-01-30T14:50:24.096Z,19.60
2023-01-30T14:52:56.954Z,28.45
2023-01-30T14:55:29.821Z,29.60
2023-01-30T14:58:01.324Z,23.00
2023-01-30T15:00:32.666Z,26.88
2023-01-30T15:03:03.407Z,27.58
2023-01-30T15:05:39.765Z,26.08
2023-01-30T15:08:11.238Z,24.75
2023-01-30T15:10:59.103Z,24.00
2023-01-30T15:13:49.741Z,27.80
2023-01-30T15:16:50.807Z,28.17
2023-01-30T15:19:51.851Z,27.15
2023-01-30T15:22:30.664Z,20.13
2023-01-30T15:25:28.368Z,24.27
2023-01-30T15:28:05.202Z,27.23
2023-01-30T15:30:57.481Z,29.15
2023-01-30T15:33:31.318Z,24.88
2023-01-30T15:36:01.009Z,30.52
2023-01-30T15:38:32.235Z,25.88
2023-01-30T15:41:03.474Z,27.63
2023-01-30T15:44:00.404Z,29.83
2023-01-30T15:46:37.252Z,37.17
2023-01-30T15:49:28.131Z,35.75
2023-01-30T15:52:01.684Z,27.60
2023-01-30T15:54:31.575Z,33.20
2023-01-30T15:57:01.195Z,35.65
2023-01-30T15:59:34.543Z,30.88
2023-01-30T16:02:06.159Z,27.73
2023-01-30T16:04:34.685Z,33.53
2023-01-30T16:07:16.684Z,27.98
2023-01-30T16:10:06.883Z,23.25
2023-01-30T16:12:37.930Z,24.17
2023-01-30T16:15:18.870Z,28.20
2023-01-30T16:17:59.762Z,29.65
2023-01-30T16:20:28.263Z,28.58
2023-01-30T16:22:56.642Z,30.65
2023-01-30T16:25:29.935Z,25.08
2023-01-30T16:27:58.633Z,24.10
2023-01-30T16:30:29.681Z,21.13
2023-01-30T16:32:58.708Z,17.77
2023-01-30T16:35:34.043Z,24.65
2023-01-30T16:38:05.628Z,31.70
2023-01-30T16:40:47.051Z,30.10
2023-01-30T16:43:20.135Z,20.23
2023-01-30T16:46:24.707Z,23.67
2023-01-30T16:48:53.066Z,26.73
2023-01-30T16:51:25.427Z,23.75
2023-01-30T16:54:00.234Z,20.08
2023-01-30T16:56:33.455Z,21.42
2023-01-30T16:59:03.587Z,16.52
2023-01-30T17:01:40.858Z,23.65
2023-01-30T17:04:21.340Z,23.42
2023-01-30T17:06:56.364Z,19.48
2023-01-30T17:09:44.397Z,16.20
2023-01-30T17:12:49.416Z,21.02
2023-01-30T17:15:30.602Z,17.88
2023-01-30T17:17:59.054Z,21.73
2023-01-30T17:20:38.490Z,24.75
2023-01-30T17:23:10.415Z,29.35
2023-01-30T17:25:42.882Z,24.75
2023-01-30T17:28:17.716Z,21.42
2023-01-30T17:30:47.426Z,19.23
2023-01-30T17:33:15.705Z,23.55
2023-01-30T17:35:44.225Z,24.85
2023-01-30T17:38:13.454Z,23.42
2023-01-30T17:40:41.728Z,19.33
2023-01-30T17:43:12.969Z,30.52
2023-01-30T17:45:41.442Z,23.25
2023-01-30T17:48:13.015Z,28.05
2023-01-30T17:50:41.393Z,22.30
2023-01-30T17:53:09.594Z,26.45
2023-01-30T17:55:37.689Z,23.80
2023-01-30T17:58:06.001Z,23.88
2023-01-30T18:00:34.333Z,26.13
2023-01-30T18:03:02.485Z,27.75
2023-01-30T18:05:32.107Z,29.42
2023-01-30T18:08:01.318Z,26.60
2023-01-30T18:10:29.762Z,24.73
2023-01-30T18:12:57.865Z,31.10
2023-01-30T18:15:26.516Z,25.30
2023-01-30T18:17:56.419Z,29.52
2023-01-30T18:20:24.791Z,29.05
2023-01-30T18:22:54.235Z,29.27
2023-01-30T18:25:22.577Z,33.88
2023-01-30T18:27:51.076Z,32.35
2023-01-30T18:30:19.955Z,30.98
2023-01-30T18:32:53.911Z,31.88
2023-01-30T18:35:23.380Z,24.77
2023-01-30T18:37:53.068Z,30.05
2023-01-30T18:40:22.106Z,30.33
2023-01-30T18:42:50.515Z,32.53
2023-01-30T18:45:18.775Z,24.98
2023-01-30T18:47:47.140Z,35.72
2023-01-30T18:50:15.331Z,28.25
2023-01-30T18:52:43.544Z,36.13
2023-01-30T18:55:13.095Z,27.45
2023-01-30T18:57:41.259Z,30.42
2023-01-30T19:00:11.020Z,25.77
2023-01-30T19:02:39.345Z,36.78
2023-01-30T19:05:08.295Z,32.25
2023-01-30T19:07:37.121Z,34.45
2023-01-30T19:10:05.647Z,33.63
2023-01-30T19:12:53.289Z,31.60
2023-01-30T19:15:21.711Z,30.65
2023-01-30T19:17:49.727Z,33.17
2023-01-30T19:20:19.715Z,26.35
2023-01-30T19:22:50.571Z,24.15
2023-01-30T19:25:18.778Z,20.38
2023-01-30T19:27:48.328Z,21.33
2023-01-30T19:30:17.446Z,22.13
2023-01-30T19:32:46.053Z,15.63
2023-01-30T19:35:14.252Z,16.95
2023-01-30T19:37:42.417Z,21.30
2023-01-30T19:40:12.013Z,14.57
2023-01-30T19:42:42.545Z,29.50
2023-01-30T19:45:15.016Z,27.67
2023-01-30T19:47:43.146Z,23.92
2023-01-30T19:50:12.347Z,20.65
2023-01-30T19:52:41.104Z,23.80
2023-01-30T19:55:09.767Z,26.15
2023-01-30T19:57:39.029Z,23.20
2023-01-30T20:00:08.373Z,15.25
2023-01-30T20:02:38.376Z,19.58
2023-01-30T20:05:07.631Z,17.17
2023-01-30T20:07:37.172Z,21.65
2023-01-30T20:10:05.900Z,21.83
2023-01-30T20:12:35.570Z,18.55
2023-01-30T20:15:04.837Z,16.55
2023-01-30T20:17:33.496Z,17.77
2023-01-30T20:20:03.299Z,19.35
2023-01-30T20:22:31.539Z,16.75
2023-01-30T20:24:59.595Z,16.20
2023-01-30T20:27:27.823Z,15.13
2023-01-30T20:29:55.931Z,16.90
2023-01-30T20:32:24.062Z,19.58
2023-01-30T20:34:52.225Z,26.38
2023-01-30T20:37:21.712Z,19.95
2023-01-30T20:39:51.003Z,26.90
2023-01-30T20:42:19.797Z,27.67
2023-01-30T20:44:48.102Z,28.33
2023-01-30T20:47:16.199Z,24.73
2023-01-30T20:49:44.522Z,22.05
2023-01-30T20:52:12.798Z,23.88
2023-01-30T20:54:42.178Z,28.67
2023-01-30T20:57:11.169Z,18.33
2023-01-30T20:59:39.642Z,19.00
2023-01-30T21:02:07.801Z,29.98
2023-01-30T21:04:35.947Z,24.38
2023-01-30T21:07:04.961Z,27.63
2023-01-30T21:09:33.169Z,19.40
2023-01-30T21:12:02.660Z,26.45
2023-01-30T21:14:30.836Z,22.10
2023-01-30T21:16:59.056Z,23.88
2023-01-30T21:19:27.182Z,29.15
2023-01-30T21:21:57.228Z,22.35
2023-01-30T21:24:27.236Z,26.80
2023-01-30T21:26:56.678Z,26.73
2023-01-30T21:29:27.789Z,31.33
2023-01-30T21:31:57.347Z,34.20
2023-01-30T21:34:26.871Z,29.55
2023-01-30T21:37:08.966Z,30.23
2023-01-30T21:39:54.744Z,22.40
2023-01-30T21:42:40.494Z,19.77
2023-01-30T21:45:10.542Z,28.20
2023-01-30T21:47:38.957Z,25.38
2023-01-30T21:50:07.971Z,28.52
2023-01-30T21:52:37.050Z,23.00
2023-01-30T21:55:05.899Z,26.23
2023-01-30T21:57:34.203Z,24.10
2023-01-30T22:00:02.626Z,28.33
2023-01-30T22:02:34.678Z,25.00
2023-01-30T22:05:03.132Z,27.63
2023-01-30T22:07:32.510Z,26.38
2023-01-30T22:10:02.163Z,23.88
2023-01-30T22:12:31.591Z,30.23
2023-01-30T22:14:59.937Z,23.90
2023-01-30T22:17:28.036Z,24.63
2023-01-30T22:19:57.798Z,23.20
2023-01-30T22:22:26.085Z,24.77
2023-01-30T22:24:54.673Z,21.92
2023-01-30T22:27:23.160Z,25.00
2023-01-30T22:29:51.643Z,30.77
2023-01-30T22:32:19.871Z,21.90
2023-01-30T22:34:47.999Z,22.63
2023-01-30T22:37:17.846Z,30.00
2023-01-30T22:39:45.906Z,28.52
2023-01-30T22:42:14.407Z,36.15
2023-01-30T22:44:42.520Z,28.15
2023-01-30T22:47:11.272Z,26.70
2023-01-30T22:49:39.647Z,25.88
2023-01-30T22:52:08.064Z,30.35
2023-01-30T22:54:37.515Z,24.85
2023-01-30T22:57:06.453Z,20.08
2023-01-30T22:59:34.524Z,30.48
2023-01-30T23:02:03.341Z,18.92
2023-01-30T23:04:31.514Z,20.98
2023-01-30T23:06:59.759Z,17.90
2023-01-30T23:09:27.964Z,14.05
2023-01-30T23:12:16.867Z,13.23
2023-01-30T23:14:45.135Z,18.42
2023-01-30T23:17:30.864Z,23.80
2023-01-30T23:19:59.162Z,22.95
2023-01-30T23:22:27.415Z,20.13
2023-01-30T23:24:55.560Z,20.73
2023-01-30T23:27:25.699Z,20.95
2023-01-30T23:29:53.804Z,23.80
2023-01-30T23:32:23.710Z,22.25
2023-01-30T23:34:51.859Z,23.02
2023-01-30T23:37:40.911Z,21.27
2023-01-30T23:40:10.312Z,22.35
2023-01-30T23:42:40.070Z,21.85
2023-01-30T23:45:09.504Z,25.63
2023-01-30T23:47:37.930Z,28.70
2023-01-30T23:50:06.576Z,21.75
2023-01-30T23:52:35.175Z,20.45
2023-01-30T23:55:03.367Z,21.42
2023-01-30T23:57:31.634Z,23.63
